sensor_id;sensor_type;location;lat;lon;timestamp;pressure;altitude;pressure_sealevel;temperature;humidity
44839;BME280;30576;42.098;24.876;2023-09-19T00:05:14;100125.06;;;17.07;63.16
44839;BME280;30576;42.098;24.876;2023-09-19T00:07:42;100079.09;;;16.75;63.13
44839;BME280;30576;42.098;24.876;2023-09-19T00:10:11;100055.66;;;16.85;63.01
44839;BME280;30576;42.098;24.876;2023-09-19T00:12:43;100098.41;;;17.07;62.63
44839;BME280;30576;42.098;24.876;2023-09-19T00:15:12;100111.38;;;17.17;63.38
44839;BME280;30576;42.098;24.876;2023-09-19T00:18:08;100157.28;;;17.51;63.55
44839;BME280;30576;42.098;24.876;2023-09-19T00:20:45;100092.34;;;17.03;64.00
44839;BME280;30576;42.098;24.876;2023-09-19T00:37:09;100077.94;;;16.82;65.05
44839;BME280;30576;42.098;24.876;2023-09-19T00:47:08;100091.19;;;16.83;65.47
44839;BME280;30576;42.098;24.876;2023-09-19T00:49:59;100076.38;;;16.76;65.60
44839;BME280;30576;42.098;24.876;2023-09-19T00:52:39;100081.66;;;16.78;65.93
44839;BME280;30576;42.098;24.876;2023-09-19T00:55:24;100113.75;;;17.00;66.04
44839;BME280;30576;42.098;24.876;2023-09-19T00:58:24;100073.34;;;16.60;66.20
44839;BME280;30576;42.098;24.876;2023-09-19T01:01:12;100067.91;;;16.63;66.11
44839;BME280;30576;42.098;24.876;2023-09-19T01:06:46;100140.03;;;17.11;65.44
44839;BME280;30576;42.098;24.876;2023-09-19T01:12:23;100053.34;;;16.74;65.37
44839;BME280;30576;42.098;24.876;2023-09-19T01:15:06;100093.91;;;16.82;64.80
44839;BME280;30576;42.098;24.876;2023-09-19T01:18:27;100075.69;;;16.70;64.94
44839;BME280;30576;42.098;24.876;2023-09-19T01:21:15;100064.34;;;16.38;65.69
44839;BME280;30576;42.098;24.876;2023-09-19T01:29:54;100070.72;;;16.59;64.21
44839;BME280;30576;42.098;24.876;2023-09-19T01:32:27;100081.91;;;16.70;64.13
44839;BME280;30576;42.098;24.876;2023-09-19T01:34:55;100077.34;;;16.74;64.39
44839;BME280;30576;42.098;24.876;2023-09-19T01:37:39;100038.88;;;16.56;64.20
44839;BME280;30576;42.098;24.876;2023-09-19T01:40:17;100056.28;;;16.66;64.48
44839;BME280;30576;42.098;24.876;2023-09-19T01:51:42;100145.75;;;17.00;64.17
44839;BME280;30576;42.098;24.876;2023-09-19T01:54:12;100056.09;;;16.45;64.67
44839;BME280;30576;42.098;24.876;2023-09-19T01:56:57;100142.81;;;17.08;64.24
44839;BME280;30576;42.098;24.876;2023-09-19T01:59:34;100099.69;;;16.96;63.96
44839;BME280;30576;42.098;24.876;2023-09-19T02:02:00;100074.00;;;16.94;63.88
44839;BME280;30576;42.098;24.876;2023-09-19T02:04:29;100061.34;;;16.74;63.70
44839;BME280;30576;42.098;24.876;2023-09-19T02:06:59;100021.81;;;16.61;63.21
44839;BME280;30576;42.098;24.876;2023-09-19T02:09:26;100036.72;;;16.40;63.90
44839;BME280;30576;42.098;24.876;2023-09-19T02:11:52;100078.22;;;16.47;64.61
44839;BME280;30576;42.098;24.876;2023-09-19T02:14:20;100045.06;;;16.29;64.50
44839;BME280;30576;42.098;24.876;2023-09-19T02:17:00;100014.03;;;16.30;64.46
44839;BME280;30576;42.098;24.876;2023-09-19T02:19:29;100046.91;;;16.54;64.36
44839;BME280;30576;42.098;24.876;2023-09-19T02:21:56;100038.28;;;16.47;64.20
44839;BME280;30576;42.098;24.876;2023-09-19T02:24:24;100072.38;;;16.63;64.33
44839;BME280;30576;42.098;24.876;2023-09-19T02:26:52;100053.22;;;16.52;64.36
44839;BME280;30576;42.098;24.876;2023-09-19T02:29:20;100066.25;;;16.61;64.34
44839;BME280;30576;42.098;24.876;2023-09-19T02:31:56;100020.91;;;16.36;64.02
44839;BME280;30576;42.098;24.876;2023-09-19T02:34:27;100034.59;;;16.52;64.27
44839;BME280;30576;42.098;24.876;2023-09-19T02:37:03;100005.56;;;16.44;63.78
44839;BME280;30576;42.098;24.876;2023-09-19T02:39:33;100016.22;;;16.44;64.55
44839;BME280;30576;42.098;24.876;2023-09-19T02:41:59;100051.84;;;16.40;65.04
44839;BME280;30576;42.098;24.876;2023-09-19T02:44:25;100038.53;;;16.40;64.95
44839;BME280;30576;42.098;24.876;2023-09-19T02:46:56;100077.69;;;16.63;65.22
44839;BME280;30576;42.098;24.876;2023-09-19T02:49:32;100089.22;;;16.63;64.80
44839;BME280;30576;42.098;24.876;2023-09-19T02:54:58;100057.16;;;16.13;65.18
44839;BME280;30576;42.098;24.876;2023-09-19T02:57:29;100039.22;;;15.91;66.45
44839;BME280;30576;42.098;24.876;2023-09-19T02:59:55;100049.47;;;16.04;66.20
44839;BME280;30576;42.098;24.876;2023-09-19T03:02:50;100124.72;;;16.64;65.88
44839;BME280;30576;42.098;24.876;2023-09-19T03:06:18;100072.94;;;16.19;65.76
44839;BME280;30576;42.098;24.876;2023-09-19T03:08:47;100050.25;;;16.07;66.13
44839;BME280;30576;42.098;24.876;2023-09-19T03:11:17;100022.97;;;16.01;66.33
44839;BME280;30576;42.098;24.876;2023-09-19T03:13:51;100093.97;;;16.27;66.54
44839;BME280;30576;42.098;24.876;2023-09-19T03:16:18;100017.25;;;15.85;66.94
44839;BME280;30576;42.098;24.876;2023-09-19T03:18:50;100040.69;;;16.00;66.76
44839;BME280;30576;42.098;24.876;2023-09-19T03:21:23;100052.13;;;16.04;66.98
44839;BME280;30576;42.098;24.876;2023-09-19T03:23:51;100061.13;;;16.00;67.20
44839;BME280;30576;42.098;24.876;2023-09-19T03:26:17;100033.47;;;15.75;67.45
44839;BME280;30576;42.098;24.876;2023-09-19T03:28:44;100055.22;;;15.90;67.08
44839;BME280;30576;42.098;24.876;2023-09-19T03:31:11;100063.41;;;15.84;66.92
44839;BME280;30576;42.098;24.876;2023-09-19T03:33:36;100044.63;;;15.58;67.12
44839;BME280;30576;42.098;24.876;2023-09-19T03:36:03;100048.97;;;15.61;66.63
44839;BME280;30576;42.098;24.876;2023-09-19T03:38:35;100075.72;;;15.86;66.71
44839;BME280;30576;42.098;24.876;2023-09-19T03:41:03;100049.22;;;15.83;66.16
44839;BME280;30576;42.098;24.876;2023-09-19T03:43:41;100031.66;;;15.78;66.05
44839;BME280;30576;42.098;24.876;2023-09-19T03:49:24;100033.06;;;15.60;66.85
44839;BME280;30576;42.098;24.876;2023-09-19T03:51:50;100065.91;;;15.58;67.54
44839;BME280;30576;42.098;24.876;2023-09-19T03:54:15;100056.81;;;15.66;67.24
44839;BME280;30576;42.098;24.876;2023-09-19T03:56:42;100051.31;;;15.72;66.92
44839;BME280;30576;42.098;24.876;2023-09-19T03:59:11;100037.94;;;15.45;67.43
44839;BME280;30576;42.098;24.876;2023-09-19T04:01:37;100085.06;;;15.70;67.88
44839;BME280;30576;42.098;24.876;2023-09-19T04:04:03;100061.69;;;15.51;67.74
44839;BME280;30576;42.098;24.876;2023-09-19T04:06:41;100024.56;;;15.48;67.19
44839;BME280;30576;42.098;24.876;2023-09-19T04:09:47;100040.00;;;15.65;67.21
44839;BME280;30576;42.098;24.876;2023-09-19T04:12:44;100119.28;;;16.12;67.60
44839;BME280;30576;42.098;24.876;2023-09-19T04:15:51;100067.22;;;15.73;68.07
44839;BME280;30576;42.098;24.876;2023-09-19T04:18:24;100063.69;;;15.73;67.73
44839;BME280;30576;42.098;24.876;2023-09-19T04:24:18;100066.84;;;15.56;68.56
44839;BME280;30576;42.098;24.876;2023-09-19T04:26:50;100075.56;;;15.61;68.51
44839;BME280;30576;42.098;24.876;2023-09-19T04:29:16;100074.69;;;15.61;68.83
44839;BME280;30576;42.098;24.876;2023-09-19T04:31:44;100067.72;;;15.56;68.83
44839;BME280;30576;42.098;24.876;2023-09-19T04:34:11;100059.06;;;15.50;68.73
44839;BME280;30576;42.098;24.876;2023-09-19T04:36:43;100071.47;;;15.81;69.00
44839;BME280;30576;42.098;24.876;2023-09-19T04:39:09;100069.91;;;15.72;68.74
44839;BME280;30576;42.098;24.876;2023-09-19T04:41:36;100091.53;;;15.91;68.93
44839;BME280;30576;42.098;24.876;2023-09-19T04:44:05;100047.03;;;15.68;68.82
44839;BME280;30576;42.098;24.876;2023-09-19T04:46:30;100061.78;;;15.78;68.45
44839;BME280;30576;42.098;24.876;2023-09-19T04:48:56;100123.63;;;16.43;67.05
44839;BME280;30576;42.098;24.876;2023-09-19T04:51:25;100072.66;;;15.99;66.98
44839;BME280;30576;42.098;24.876;2023-09-19T04:53:54;100084.81;;;15.79;67.70
44839;BME280;30576;42.098;24.876;2023-09-19T04:56:19;100053.88;;;15.75;67.81
44839;BME280;30576;42.098;24.876;2023-09-19T04:58:46;100063.41;;;15.84;67.91
44839;BME280;30576;42.098;24.876;2023-09-19T05:01:11;100086.78;;;16.02;67.79
44839;BME280;30576;42.098;24.876;2023-09-19T05:03:39;100090.97;;;16.09;68.38
44839;BME280;30576;42.098;24.876;2023-09-19T05:06:05;100070.31;;;16.18;67.74
44839;BME280;30576;42.098;24.876;2023-09-19T05:08:33;100085.09;;;16.26;68.29
44839;BME280;30576;42.098;24.876;2023-09-19T05:11:02;100063.00;;;16.24;66.80
44839;BME280;30576;42.098;24.876;2023-09-19T05:13:27;100125.88;;;16.82;67.02
44839;BME280;30576;42.098;24.876;2023-09-19T05:16:02;100070.94;;;16.53;67.20
44839;BME280;30576;42.098;24.876;2023-09-19T05:18:28;100043.53;;;16.49;66.58
44839;BME280;30576;42.098;24.876;2023-09-19T05:20:53;100065.41;;;16.59;67.49
44839;BME280;30576;42.098;24.876;2023-09-19T05:26:37;100119.38;;;17.66;67.17
44839;BME280;30576;42.098;24.876;2023-09-19T05:29:43;100023.38;;;17.43;66.65
44839;BME280;30576;42.098;24.876;2023-09-19T05:35:21;100095.38;;;18.14;65.00
44839;BME280;30576;42.098;24.876;2023-09-19T05:41:18;100057.06;;;18.57;63.74
44839;BME280;30576;42.098;24.876;2023-09-19T05:43:54;100035.19;;;18.70;61.92
44839;BME280;30576;42.098;24.876;2023-09-19T05:46:47;100040.97;;;18.59;61.07
44839;BME280;30576;42.098;24.876;2023-09-19T05:49:15;100057.97;;;18.78;60.38
44839;BME280;30576;42.098;24.876;2023-09-19T05:55:00;100060.47;;;19.62;58.26
44839;BME280;30576;42.098;24.876;2023-09-19T06:07:54;100068.06;;;20.29;56.76
44839;BME280;30576;42.098;24.876;2023-09-19T06:10:57;100047.69;;;20.44;56.66
44839;BME280;30576;42.098;24.876;2023-09-19T06:13:48;100077.03;;;20.82;55.68
44839;BME280;30576;42.098;24.876;2023-09-19T06:16:19;100058.69;;;20.91;54.56
44839;BME280;30576;42.098;24.876;2023-09-19T06:19:36;100062.78;;;21.66;52.52
44839;BME280;30576;42.098;24.876;2023-09-19T06:22:22;100056.13;;;21.89;52.08
44839;BME280;30576;42.098;24.876;2023-09-19T06:24:52;100051.97;;;22.15;50.84
44839;BME280;30576;42.098;24.876;2023-09-19T06:27:18;100056.88;;;22.55;49.96
44839;BME280;30576;42.098;24.876;2023-09-19T06:29:44;100049.66;;;22.71;49.75
44839;BME280;30576;42.098;24.876;2023-09-19T06:32:09;100098.63;;;23.06;49.63
44839;BME280;30576;42.098;24.876;2023-09-19T06:34:35;100046.69;;;23.20;48.55
44839;BME280;30576;42.098;24.876;2023-09-19T06:37:01;100058.13;;;23.24;48.07
44839;BME280;30576;42.098;24.876;2023-09-19T06:39:28;100035.72;;;23.38;47.23
44839;BME280;30576;42.098;24.876;2023-09-19T06:41:54;100061.19;;;23.61;45.98
44839;BME280;30576;42.098;24.876;2023-09-19T06:44:25;100044.56;;;23.54;45.71
44839;BME280;30576;42.098;24.876;2023-09-19T06:47:06;100038.81;;;23.32;46.87
44839;BME280;30576;42.098;24.876;2023-09-19T06:52:50;100020.47;;;23.94;45.74
44839;BME280;30576;42.098;24.876;2023-09-19T06:56:05;100039.94;;;24.12;46.00
44839;BME280;30576;42.098;24.876;2023-09-19T06:58:37;100053.66;;;23.66;45.13
44839;BME280;30576;42.098;24.876;2023-09-19T07:01:03;100069.81;;;23.95;45.57
44839;BME280;30576;42.098;24.876;2023-09-19T07:03:29;100068.94;;;24.09;45.39
44839;BME280;30576;42.098;24.876;2023-09-19T07:06:00;100054.34;;;23.84;45.15
44839;BME280;30576;42.098;24.876;2023-09-19T07:08:26;100042.34;;;24.17;44.40
44839;BME280;30576;42.098;24.876;2023-09-19T07:10:53;100057.53;;;24.73;43.96
44839;BME280;30576;42.098;24.876;2023-09-19T07:13:32;100024.69;;;24.53;43.75
44839;BME280;30576;42.098;24.876;2023-09-19T07:15:58;100005.81;;;24.53;42.95
44839;BME280;30576;42.098;24.876;2023-09-19T07:18:25;100030.47;;;25.00;42.28
44839;BME280;30576;42.098;24.876;2023-09-19T07:20:51;100006.94;;;25.02;43.54
44839;BME280;30576;42.098;24.876;2023-09-19T07:23:22;100029.94;;;25.08;41.90
44839;BME280;30576;42.098;24.876;2023-09-19T07:25:49;99999.63;;;25.04;42.57
44839;BME280;30576;42.098;24.876;2023-09-19T07:28:24;100025.50;;;24.94;42.43
44839;BME280;30576;42.098;24.876;2023-09-19T07:30:52;100007.69;;;25.17;40.78
44839;BME280;30576;42.098;24.876;2023-09-19T07:33:20;100028.50;;;25.66;40.95
44839;BME280;30576;42.098;24.876;2023-09-19T07:35:46;100012.53;;;25.63;40.41
44839;BME280;30576;42.098;24.876;2023-09-19T07:38:12;99996.69;;;25.83;39.67
44839;BME280;30576;42.098;24.876;2023-09-19T07:40:38;100024.34;;;25.86;40.11
44839;BME280;30576;42.098;24.876;2023-09-19T07:43:03;100014.50;;;26.22;40.06
44839;BME280;30576;42.098;24.876;2023-09-19T07:45:30;100000.25;;;26.20;40.61
44839;BME280;30576;42.098;24.876;2023-09-19T07:47:56;100022.78;;;26.68;40.12
44839;BME280;30576;42.098;24.876;2023-09-19T07:50:22;99997.66;;;26.54;39.53
44839;BME280;30576;42.098;24.876;2023-09-19T07:52:49;100010.31;;;26.54;39.24
44839;BME280;30576;42.098;24.876;2023-09-19T07:55:19;99983.09;;;26.44;38.52
44839;BME280;30576;42.098;24.876;2023-09-19T07:57:46;100012.22;;;26.29;39.73
44839;BME280;30576;42.098;24.876;2023-09-19T08:00:15;99971.03;;;26.01;39.17
44839;BME280;30576;42.098;24.876;2023-09-19T08:02:41;99998.13;;;26.48;40.11
44839;BME280;30576;42.098;24.876;2023-09-19T08:05:11;100004.56;;;27.05;38.50
44839;BME280;30576;42.098;24.876;2023-09-19T08:07:42;99971.06;;;26.84;38.73
44839;BME280;30576;42.098;24.876;2023-09-19T08:10:09;99957.41;;;26.96;37.37
44839;BME280;30576;42.098;24.876;2023-09-19T08:12:43;99959.16;;;26.97;37.81
44839;BME280;30576;42.098;24.876;2023-09-19T08:15:29;99991.63;;;27.09;36.45
44839;BME280;30576;42.098;24.876;2023-09-19T08:18:21;99974.91;;;26.57;36.50
44839;BME280;30576;42.098;24.876;2023-09-19T08:20:52;99968.03;;;26.64;36.80
44839;BME280;30576;42.098;24.876;2023-09-19T08:23:19;99992.47;;;26.87;38.92
44839;BME280;30576;42.098;24.876;2023-09-19T08:25:56;99948.84;;;26.56;37.21
44839;BME280;30576;42.098;24.876;2023-09-19T08:28:33;99980.94;;;26.96;38.04
44839;BME280;30576;42.098;24.876;2023-09-19T08:31:10;99955.69;;;27.29;36.43
44839;BME280;30576;42.098;24.876;2023-09-19T08:33:39;99928.22;;;26.66;36.24
44839;BME280;30576;42.098;24.876;2023-09-19T08:36:06;99916.16;;;26.59;36.38
44839;BME280;30576;42.098;24.876;2023-09-19T08:38:35;99940.16;;;26.63;36.05
44839;BME280;30576;42.098;24.876;2023-09-19T08:41:05;99957.63;;;26.71;35.93
44839;BME280;30576;42.098;24.876;2023-09-19T08:43:31;99927.59;;;26.62;35.73
44839;BME280;30576;42.098;24.876;2023-09-19T08:46:19;99975.41;;;27.09;36.02
44839;BME280;30576;42.098;24.876;2023-09-19T08:49:05;99951.13;;;26.85;36.65
44839;BME280;30576;42.098;24.876;2023-09-19T08:51:41;99903.66;;;26.92;35.47
44839;BME280;30576;42.098;24.876;2023-09-19T08:54:14;99944.03;;;27.51;35.26
44839;BME280;30576;42.098;24.876;2023-09-19T08:56:46;99904.66;;;27.02;35.79
44839;BME280;30576;42.098;24.876;2023-09-19T08:59:13;99910.41;;;26.86;35.73
44839;BME280;30576;42.098;24.876;2023-09-19T09:01:40;99911.06;;;26.90;36.11
44839;BME280;30576;42.098;24.876;2023-09-19T09:07:04;99902.88;;;26.56;36.05
44839;BME280;30576;42.098;24.876;2023-09-19T09:09:29;99899.41;;;26.54;35.70
44839;BME280;30576;42.098;24.876;2023-09-19T09:12:15;99953.13;;;27.05;35.35
44839;BME280;30576;42.098;24.876;2023-09-19T09:18:18;99894.69;;;27.03;35.14
44839;BME280;30576;42.098;24.876;2023-09-19T09:20:51;99897.63;;;27.00;35.97
44839;BME280;30576;42.098;24.876;2023-09-19T09:23:28;99882.38;;;26.98;34.95
44839;BME280;30576;42.098;24.876;2023-09-19T09:34:06;99874.75;;;26.70;36.19
44839;BME280;30576;42.098;24.876;2023-09-19T09:37:00;99927.38;;;26.77;36.13
44839;BME280;30576;42.098;24.876;2023-09-19T09:39:30;99841.22;;;26.14;36.61
44839;BME280;30576;42.098;24.876;2023-09-19T09:42:07;99887.75;;;26.65;36.13
44839;BME280;30576;42.098;24.876;2023-09-19T09:44:35;99893.88;;;26.44;35.59
44839;BME280;30576;42.098;24.876;2023-09-19T09:47:02;99880.69;;;26.17;36.27
44839;BME280;30576;42.098;24.876;2023-09-19T09:49:49;99815.91;;;25.80;36.49
44839;BME280;30576;42.098;24.876;2023-09-19T09:52:44;99830.28;;;26.04;37.72
44839;BME280;30576;42.098;24.876;2023-09-19T09:55:10;99837.06;;;26.55;37.12
44839;BME280;30576;42.098;24.876;2023-09-19T09:57:41;99856.41;;;26.62;35.75
44839;BME280;30576;42.098;24.876;2023-09-19T10:03:19;99835.94;;;26.13;36.10
44839;BME280;30576;42.098;24.876;2023-09-19T10:06:08;99827.59;;;26.38;36.13
44839;BME280;30576;42.098;24.876;2023-09-19T10:09:14;99830.47;;;26.71;36.33
44839;BME280;30576;42.098;24.876;2023-09-19T10:11:47;99869.41;;;27.25;35.26
44839;BME280;30576;42.098;24.876;2023-09-19T10:14:20;99870.91;;;27.29;35.88
44839;BME280;30576;42.098;24.876;2023-09-19T10:16:53;99848.63;;;27.14;35.93
44839;BME280;30576;42.098;24.876;2023-09-19T10:19:42;99900.22;;;27.24;35.43
44839;BME280;30576;42.098;24.876;2023-09-19T10:22:16;99801.44;;;26.84;35.12
44839;BME280;30576;42.098;24.876;2023-09-19T10:25:05;99836.97;;;26.91;36.44
44839;BME280;30576;42.098;24.876;2023-09-19T10:27:36;99804.03;;;26.86;36.12
44839;BME280;30576;42.098;24.876;2023-09-19T10:30:11;99821.31;;;27.17;35.43
44839;BME280;30576;42.098;24.876;2023-09-19T10:32:42;99833.28;;;27.03;35.35
44839;BME280;30576;42.098;24.876;2023-09-19T10:35:16;99807.41;;;27.33;35.76
44839;BME280;30576;42.098;24.876;2023-09-19T10:37:46;99791.03;;;27.67;35.38
44839;BME280;30576;42.098;24.876;2023-09-19T10:40:29;99813.31;;;27.92;34.70
44839;BME280;30576;42.098;24.876;2023-09-19T10:43:40;99836.56;;;27.94;34.00
44839;BME280;30576;42.098;24.876;2023-09-19T10:46:19;99794.63;;;27.89;34.86
44839;BME280;30576;42.098;24.876;2023-09-19T10:49:06;99784.72;;;27.99;34.69
44839;BME280;30576;42.098;24.876;2023-09-19T10:51:40;99818.69;;;28.24;34.01
44839;BME280;30576;42.098;24.876;2023-09-19T10:54:17;99783.19;;;28.06;34.39
44839;BME280;30576;42.098;24.876;2023-09-19T10:56:49;99773.72;;;28.00;33.28
44839;BME280;30576;42.098;24.876;2023-09-19T10:59:20;99778.63;;;27.85;33.10
44839;BME280;30576;42.098;24.876;2023-09-19T11:01:48;99766.44;;;27.80;33.55
44839;BME280;30576;42.098;24.876;2023-09-19T11:04:35;99756.06;;;27.64;33.69
44839;BME280;30576;42.098;24.876;2023-09-19T11:07:15;99826.69;;;28.04;33.18
44839;BME280;30576;42.098;24.876;2023-09-19T11:09:58;99800.13;;;27.98;33.42
44839;BME280;30576;42.098;24.876;2023-09-19T11:15:07;99774.75;;;27.99;33.44
44839;BME280;30576;42.098;24.876;2023-09-19T11:17:43;99766.50;;;28.32;33.52
44839;BME280;30576;42.098;24.876;2023-09-19T11:30:41;99763.53;;;28.66;31.36
44839;BME280;30576;42.098;24.876;2023-09-19T11:33:30;99790.91;;;29.03;31.78
44839;BME280;30576;42.098;24.876;2023-09-19T11:36:09;99740.75;;;28.57;31.54
44839;BME280;30576;42.098;24.876;2023-09-19T11:41:40;99766.03;;;28.98;32.07
44839;BME280;30576;42.098;24.876;2023-09-19T11:50:48;99682.97;;;27.74;34.01
44839;BME280;30576;42.098;24.876;2023-09-19T11:53:21;99693.56;;;27.98;33.83
44839;BME280;30576;42.098;24.876;2023-09-19T11:58:56;99707.53;;;28.34;33.49
44839;BME280;30576;42.098;24.876;2023-09-19T12:01:29;99753.47;;;28.56;32.78
44839;BME280;30576;42.098;24.876;2023-09-19T12:03:59;99701.22;;;28.23;33.29
44839;BME280;30576;42.098;24.876;2023-09-19T12:10:05;99689.50;;;28.13;33.85
44839;BME280;30576;42.098;24.876;2023-09-19T12:12:36;99684.91;;;28.54;33.13
44839;BME280;30576;42.098;24.876;2023-09-19T12:15:13;99673.09;;;28.65;32.84
44839;BME280;30576;42.098;24.876;2023-09-19T12:17:40;99686.56;;;28.77;32.04
44839;BME280;30576;42.098;24.876;2023-09-19T12:20:26;99659.97;;;28.61;33.29
44839;BME280;30576;42.098;24.876;2023-09-19T12:23:20;99693.72;;;28.97;33.19
44839;BME280;30576;42.098;24.876;2023-09-19T12:25:57;99679.16;;;28.98;32.25
44839;BME280;30576;42.098;24.876;2023-09-19T12:28:27;99664.31;;;29.12;31.54
44839;BME280;30576;42.098;24.876;2023-09-19T12:31:17;99654.00;;;28.77;31.95
44839;BME280;30576;42.098;24.876;2023-09-19T12:33:45;99674.31;;;28.92;31.75
44839;BME280;30576;42.098;24.876;2023-09-19T12:36:24;99659.72;;;28.83;32.13
44839;BME280;30576;42.098;24.876;2023-09-19T12:42:02;99630.28;;;28.28;32.00
44839;BME280;30576;42.098;24.876;2023-09-19T12:44:43;99633.91;;;28.48;31.88
44839;BME280;30576;42.098;24.876;2023-09-19T12:47:15;99676.75;;;28.54;32.28
44839;BME280;30576;42.098;24.876;2023-09-19T12:50:22;99707.59;;;28.94;32.77
44839;BME280;30576;42.098;24.876;2023-09-19T12:52:59;99647.47;;;28.48;32.31
44839;BME280;30576;42.098;24.876;2023-09-19T12:55:28;99657.09;;;28.62;32.73
44839;BME280;30576;42.098;24.876;2023-09-19T12:58:17;99638.84;;;28.84;32.48
44839;BME280;30576;42.098;24.876;2023-09-19T13:00:49;99629.66;;;28.55;32.82
44839;BME280;30576;42.098;24.876;2023-09-19T13:03:35;99638.06;;;28.43;31.86
44839;BME280;30576;42.098;24.876;2023-09-19T13:06:13;99617.00;;;28.66;32.17
44839;BME280;30576;42.098;24.876;2023-09-19T13:08:42;99637.84;;;28.94;31.98
44839;BME280;30576;42.098;24.876;2023-09-19T13:11:11;99651.16;;;29.17;32.31
44839;BME280;30576;42.098;24.876;2023-09-19T13:17:15;99611.72;;;29.03;31.50
44839;BME280;30576;42.098;24.876;2023-09-19T13:20:01;99601.72;;;28.84;31.33
44839;BME280;30576;42.098;24.876;2023-09-19T13:22:45;99689.03;;;29.28;31.77
44839;BME280;30576;42.098;24.876;2023-09-19T13:25:51;99589.53;;;28.39;32.13
44839;BME280;30576;42.098;24.876;2023-09-19T13:28:20;99636.56;;;28.69;32.43
44839;BME280;30576;42.098;24.876;2023-09-19T13:30:58;99646.44;;;28.70;32.59
44839;BME280;30576;42.098;24.876;2023-09-19T13:33:49;99639.06;;;28.51;33.00
44839;BME280;30576;42.098;24.876;2023-09-19T13:36:20;99617.47;;;28.30;32.96
44839;BME280;30576;42.098;24.876;2023-09-19T13:38:58;99632.22;;;28.57;32.86
44839;BME280;30576;42.098;24.876;2023-09-19T13:41:26;99616.59;;;28.30;32.78
44839;BME280;30576;42.098;24.876;2023-09-19T13:44:14;99605.31;;;28.25;32.57
44839;BME280;30576;42.098;24.876;2023-09-19T13:47:09;99624.44;;;28.73;32.30
44839;BME280;30576;42.098;24.876;2023-09-19T13:50:17;99605.28;;;28.94;31.85
44839;BME280;30576;42.098;24.876;2023-09-19T13:55:44;99632.16;;;29.07;31.10
44839;BME280;30576;42.098;24.876;2023-09-19T13:58:27;99593.72;;;28.92;31.10
44839;BME280;30576;42.098;24.876;2023-09-19T14:00:58;99587.41;;;29.02;31.52
44839;BME280;30576;42.098;24.876;2023-09-19T14:03:25;99591.97;;;29.11;30.79
44839;BME280;30576;42.098;24.876;2023-09-19T14:05:53;99574.28;;;28.97;31.06
44839;BME280;30576;42.098;24.876;2023-09-19T14:08:19;99577.25;;;29.04;31.13
44839;BME280;30576;42.098;24.876;2023-09-19T14:10:44;99637.97;;;29.61;31.23
44839;BME280;30576;42.098;24.876;2023-09-19T14:13:10;99598.81;;;29.35;31.86
44839;BME280;30576;42.098;24.876;2023-09-19T14:15:38;99585.56;;;29.02;31.55
44839;BME280;30576;42.098;24.876;2023-09-19T14:18:04;99566.13;;;29.07;31.53
44839;BME280;30576;42.098;24.876;2023-09-19T14:20:30;99604.97;;;29.46;30.79
44839;BME280;30576;42.098;24.876;2023-09-19T14:22:57;99560.94;;;29.43;31.74
44839;BME280;30576;42.098;24.876;2023-09-19T14:25:24;99584.50;;;29.42;31.21
44839;BME280;30576;42.098;24.876;2023-09-19T14:27:56;99578.38;;;29.40;31.28
44839;BME280;30576;42.098;24.876;2023-09-19T14:30:21;99616.88;;;29.73;29.93
44839;BME280;30576;42.098;24.876;2023-09-19T14:32:49;99601.81;;;29.51;30.03
44839;BME280;30576;42.098;24.876;2023-09-19T14:35:15;99587.13;;;29.34;29.73
44839;BME280;30576;42.098;24.876;2023-09-19T14:37:41;99616.81;;;29.55;30.19
44839;BME280;30576;42.098;24.876;2023-09-19T14:42:45;99624.94;;;29.65;30.17
44839;BME280;30576;42.098;24.876;2023-09-19T14:45:23;99571.69;;;29.25;30.00
44839;BME280;30576;42.098;24.876;2023-09-19T14:48:16;99616.38;;;29.50;30.40
44839;BME280;30576;42.098;24.876;2023-09-19T14:54:04;99568.09;;;29.15;30.32
44839;BME280;30576;42.098;24.876;2023-09-19T14:56:34;99560.59;;;28.89;30.98
44839;BME280;30576;42.098;24.876;2023-09-19T15:02:22;99566.97;;;29.37;29.76
44839;BME280;30576;42.098;24.876;2023-09-19T15:11:40;99575.25;;;29.35;30.09
44839;BME280;30576;42.098;24.876;2023-09-19T15:14:19;99600.97;;;29.51;30.20
44839;BME280;30576;42.098;24.876;2023-09-19T15:20:27;99560.69;;;29.26;29.79
44839;BME280;30576;42.098;24.876;2023-09-19T15:26:40;99603.88;;;29.20;30.64
44839;BME280;30576;42.098;24.876;2023-09-19T15:29:06;99581.69;;;28.85;30.78
44839;BME280;30576;42.098;24.876;2023-09-19T15:31:32;99609.28;;;29.00;31.00
44839;BME280;30576;42.098;24.876;2023-09-19T15:33:58;99560.09;;;28.45;31.33
44839;BME280;30576;42.098;24.876;2023-09-19T15:36:23;99575.41;;;28.65;31.31
44839;BME280;30576;42.098;24.876;2023-09-19T15:39:06;99596.28;;;28.65;31.14
44839;BME280;30576;42.098;24.876;2023-09-19T15:41:39;99604.13;;;28.78;31.17
44839;BME280;30576;42.098;24.876;2023-09-19T15:47:27;99572.25;;;28.50;31.44
44839;BME280;30576;42.098;24.876;2023-09-19T15:49:55;99558.94;;;28.18;31.89
44839;BME280;30576;42.098;24.876;2023-09-19T15:52:21;99589.38;;;28.41;31.87
44839;BME280;30576;42.098;24.876;2023-09-19T15:54:46;99584.47;;;28.15;32.33
44839;BME280;30576;42.098;24.876;2023-09-19T15:57:18;99592.72;;;28.04;32.25
44839;BME280;30576;42.098;24.876;2023-09-19T15:59:58;99591.59;;;28.16;31.97
44839;BME280;30576;42.098;24.876;2023-09-19T16:02:45;99614.00;;;28.18;32.93
44839;BME280;30576;42.098;24.876;2023-09-19T16:05:18;99584.19;;;27.87;33.19
44839;BME280;30576;42.098;24.876;2023-09-19T16:07:46;99585.78;;;27.90;32.85